Time;durP1;ratioP1;P1;durP2;ratioP2;P2;SDS_P1;SDS_P2;PMS_P1;PMS_P2;Temp;Humidity;BMP_temperature;BMP_pressure;BME280_temperature;BME280_humidity;BME280_pressure;Samples;Min_cycle;Max_cycle;Signal;HPM_P1;HPM_P2
2023/06/10 00:02:20;;;;;;;6.40;1.40;;;;;;;15.27;nan;97322.19;1721737;75;162289;-75
2023/06/10 00:04:50;;;;;;;1.80;1.30;;;;;;;15.24;nan;97321.22;1725002;75;50378;-71
2023/06/10 00:07:19;;;;;;;1.40;1.20;;;;;;;15.22;nan;97323.72;1722523;75;161627;-73
2023/06/10 00:09:50;;;;;;;1.40;1.30;;;;;;;15.14;nan;97320.06;1724506;75;78159;-72
2023/06/10 00:12:23;;;;;;;1.40;1.30;;;;;;;15.17;nan;97321.78;1722170;75;161419;-70
2023/06/10 00:14:53;;;;;;;1.00;1.00;;;;;;;15.17;nan;97321.78;1724976;75;55908;-71
2023/06/10 00:17:23;;;;;;;1.30;1.20;;;;;;;15.16;nan;97330.59;1722337;75;160848;-71
2023/06/10 00:19:53;;;;;;;1.40;1.30;;;;;;;15.10;nan;97325.09;1710412;75;1225147;-71
2023/06/10 00:22:24;;;;;;;1.50;1.40;;;;;;;15.07;nan;97326.13;1722388;75;161406;-71
2023/06/10 00:24:54;;;;;;;1.30;1.20;;;;;;;15.08;nan;97330.38;1723764;75;132800;-71
2023/06/10 00:27:31;;;;;;;1.80;1.40;;;;;;;15.08;nan;97322.09;1722258;83;161475;-74
2023/06/10 00:30:00;;;;;;;1.80;1.50;;;;;;;15.04;nan;97319.63;1710502;75;1205068;-74
2023/06/10 00:32:30;;;;;;;1.70;1.10;;;;;;;15.01;nan;97317.91;1722998;75;184868;-72
2023/06/10 00:35:00;;;;;;;1.50;1.20;;;;;;;14.98;nan;97318.94;1720632;75;357927;-76
2023/06/10 00:37:30;;;;;;;1.40;1.30;;;;;;;15.00;nan;97321.19;1724317;75;54876;-71
2023/06/10 00:40:00;;;;;;;1.30;1.20;;;;;;;14.99;nan;97319.69;1721531;75;299781;-73
2023/06/10 00:42:32;;;;;;;1.40;1.30;;;;;;;14.97;nan;97322.22;1723713;75;65359;-71
2023/06/10 00:45:02;;;;;;;1.10;1.00;;;;;;;14.89;nan;97309.00;1721373;75;236052;-73
2023/06/10 00:47:35;;;;;;;1.60;1.40;;;;;;;14.87;nan;97306.00;1721048;75;307016;-71
2023/06/10 00:50:05;;;;;;;1.30;1.20;;;;;;;14.87;nan;97308.75;1723605;75;55931;-69
2023/06/10 00:52:36;;;;;;;1.70;1.60;;;;;;;14.75;nan;97304.59;1724273;75;54600;-71
2023/06/10 00:55:07;;;;;;;1.60;1.40;;;;;;;14.78;nan;97305.56;1724368;75;58025;-71
2023/06/10 00:57:40;;;;;;;1.40;1.30;;;;;;;14.74;nan;97299.59;1723025;75;188788;-70
2023/06/10 01:00:13;;;;;;;1.60;1.50;;;;;;;14.73;nan;97314.63;1724811;75;54731;-73
2023/06/10 01:02:43;;;;;;;1.50;1.40;;;;;;;14.70;nan;97310.91;1725603;75;55306;-74
2023/06/10 01:05:13;;;;;;;1.60;1.50;;;;;;;14.67;nan;97309.16;1723969;75;61358;-70
2023/06/10 01:07:53;;;;;;;1.70;1.60;;;;;;;14.68;nan;97305.16;1724429;75;51115;-70
2023/06/10 01:10:29;;;;;;;1.70;1.50;;;;;;;14.68;nan;97299.63;1721511;75;271210;-71
2023/06/10 01:13:06;;;;;;;1.50;1.30;;;;;;;14.69;nan;97307.38;1723139;75;142166;-73
2023/06/10 01:15:37;;;;;;;;;;;;;;;14.48;nan;97307.00;1722347;75;211035;-72
2023/06/10 01:18:14;;;;;;;3.20;2.90;;;;;;;14.40;nan;97308.78;1722598;83;52596;-71
2023/06/10 01:20:46;;;;;;;3.20;2.90;;;;;;;14.40;nan;97305.28;1723110;75;146534;-71
2023/06/10 01:23:19;;;;;;;3.40;2.60;;;;;;;14.59;nan;97313.72;1723887;75;64461;-71
2023/06/10 01:25:56;;;;;;;1.80;1.70;;;;;;;14.52;nan;97306.72;1723271;75;52643;-74
2023/06/10 01:28:36;;;;;;;1.80;1.70;;;;;;;14.51;nan;97315.50;1722255;75;161510;-71
2023/06/10 01:31:15;;;;;;;1.70;1.60;;;;;;;14.47;nan;97319.25;1722951;75;58454;-72
2023/06/10 01:33:49;;;;;;;1.70;1.60;;;;;;;14.49;nan;97318.75;1722946;75;184737;-71
2023/06/10 01:36:21;;;;;;;1.30;1.20;;;;;;;14.45;nan;97318.28;1723586;75;56805;-70
2023/06/10 01:38:55;;;;;;;2.00;1.60;;;;;;;14.38;nan;97321.56;1724299;75;54699;-70
2023/06/10 01:41:27;;;;;;;1.20;1.10;;;;;;;14.43;nan;97323.53;1722455;75;57846;-75
2023/06/10 01:43:58;;;;;;;1.30;1.20;;;;;;;14.41;nan;97317.81;1720417;75;391645;-71
2023/06/10 01:46:28;;;;;;;1.40;1.30;;;;;;;14.41;nan;97315.81;1719764;75;261544;-70
2023/06/10 01:48:58;;;;;;;1.60;1.50;;;;;;;14.36;nan;97318.56;1721498;75;298194;-71
2023/06/10 01:51:28;;;;;;;1.30;1.20;;;;;;;14.30;nan;97318.63;1721413;75;161455;-70
2023/06/10 01:54:00;;;;;;;1.60;1.50;;;;;;;14.29;nan;97319.88;1724330;75;52183;-71
2023/06/10 01:56:30;;;;;;;1.70;1.50;;;;;;;14.21;nan;97322.41;1722041;75;161672;-71
2023/06/10 01:59:00;;;;;;;1.50;1.40;;;;;;;14.19;nan;97322.19;1724222;75;56597;-71
2023/06/10 02:01:31;;;;;;;1.50;1.40;;;;;;;14.19;nan;97311.19;1724507;75;57118;-73
2023/06/10 02:04:01;;;;;;;1.40;1.30;;;;;;;14.20;nan;97322.94;1655242;75;5959241;-72
2023/06/10 02:06:31;;;;;;;1.20;1.10;;;;;;;14.19;nan;97322.19;1696381;75;2350404;-72
2023/06/10 02:09:03;;;;;;;1.30;1.20;;;;;;;14.13;nan;97326.97;1710847;75;1348472;-71
2023/06/10 02:11:33;;;;;;;1.70;1.50;;;;;;;14.13;nan;97331.72;1723606;75;162748;-71
2023/06/10 02:14:03;;;;;;;1.90;1.80;;;;;;;14.04;nan;97321.75;1722337;75;339339;-71
2023/06/10 02:16:33;;;;;;;2.30;1.90;;;;;;;14.09;nan;97325.72;1720410;75;376375;-72
2023/06/10 02:19:06;;;;;;;1.70;1.60;;;;;;;14.11;nan;97325.97;1725104;75;54568;-70
2023/06/10 02:21:36;;;;;;;1.60;1.50;;;;;;;14.18;nan;97328.19;1722408;75;161638;-71
2023/06/10 02:24:10;;;;;;;3.20;1.60;;;;;;;14.17;nan;97326.72;1723967;75;72880;-74
2023/06/10 02:26:40;;;;;;;1.60;1.50;;;;;;;14.12;nan;97324.72;1721917;75;162281;-75
2023/06/10 02:29:09;;;;;;;3.10;2.00;;;;;;;14.03;nan;97320.25;1723987;75;68395;-73
2023/06/10 02:31:39;;;;;;;1.80;1.70;;;;;;;14.11;nan;97325.97;1720918;75;199865;-73
2023/06/10 02:34:09;;;;;;;4.20;2.50;;;;;;;14.04;nan;97322.50;1721878;75;239912;-71
2023/06/10 02:36:39;;;;;;;1.70;1.60;;;;;;;14.14;nan;97328.47;1720702;75;276218;-71
2023/06/10 02:39:11;;;;;;;1.40;1.30;;;;;;;14.23;nan;97330.16;1724003;75;56551;-70
2023/06/10 02:41:41;;;;;;;1.60;1.50;;;;;;;14.19;nan;97335.19;1722073;75;161560;-72
2023/06/10 02:44:11;;;;;;;2.20;1.20;;;;;;;14.22;nan;97334.94;1723673;75;144074;-71
2023/06/10 02:46:41;;;;;;;2.30;1.30;;;;;;;14.22;nan;97331.44;1721996;75;152465;-71
2023/06/10 02:49:11;;;;;;;1.50;1.40;;;;;;;14.24;nan;97334.44;1724032;75;52632;-74
2023/06/10 02:51:41;;;;;;;1.50;1.40;;;;;;;14.20;nan;97333.94;1722615;75;122110;-73
2023/06/10 02:54:14;;;;;;;1.20;1.10;;;;;;;14.14;nan;97342.25;1724888;75;58026;-72
2023/06/10 02:56:44;;;;;;;1.60;1.50;;;;;;;14.14;nan;97344.22;1722411;75;161463;-71
2023/06/10 02:59:13;;;;;;;1.70;1.60;;;;;;;14.15;nan;97356.75;1724542;75;62125;-72
2023/06/10 03:01:43;;;;;;;1.70;1.60;;;;;;;14.17;nan;97362.50;1722877;75;54373;-70
2023/06/10 03:04:13;;;;;;;1.70;1.60;;;;;;;14.09;nan;97356.00;1724189;75;49448;-70
2023/06/10 03:06:45;;;;;;;2.80;1.90;;;;;;;14.05;nan;97364.53;1723396;75;62251;-71
2023/06/10 03:09:17;;;;;;;1.90;1.60;;;;;;;14.10;nan;97365.78;1721888;75;247424;-72
2023/06/10 03:11:47;;;;;;;2.10;1.90;;;;;;;14.12;nan;97361.28;1722391;75;161667;-69
2023/06/10 03:14:17;;;;;;;1.50;1.40;;;;;;;14.15;nan;97370.50;1724620;75;61610;-73
2023/06/10 03:16:47;;;;;;;2.50;2.30;;;;;;;14.06;nan;97366.03;1722982;75;77632;-72
2023/06/10 03:19:16;;;;;;;2.20;1.90;;;;;;;13.99;nan;97366.56;1721070;75;281778;-71
2023/06/10 03:21:48;;;;;;;3.00;2.70;;;;;;;13.85;nan;97365.59;1719392;75;322904;-71
2023/06/10 03:24:21;;;;;;;4.40;3.60;;;;;;;13.78;nan;97361.38;1724144;75;57722;-74
2023/06/10 03:26:51;;;;;;;5.60;4.20;;;;;;;13.75;nan;97367.88;1720959;75;161346;-69
2023/06/10 03:29:21;;;;;;;6.10;5.50;;;;;;;13.64;nan;97365.91;1723989;75;60116;-71
2023/06/10 03:31:51;;;;;;;4.20;3.80;;;;;;;13.76;nan;97374.88;1720339;75;281900;-70
2023/06/10 03:34:21;;;;;;;3.30;3.00;;;;;;;13.85;nan;97377.38;1724162;75;52741;-71
2023/06/10 03:36:50;;;;;;;3.10;2.80;;;;;;;13.96;nan;97368.31;1723159;75;57784;-70
2023/06/10 03:39:23;;;;;;;2.80;2.60;;;;;;;13.96;nan;97384.09;1723768;75;67387;-75
2023/06/10 03:41:53;;;;;;;3.20;2.90;;;;;;;13.92;nan;97381.59;1719455;75;259163;-70
2023/06/10 03:44:23;;;;;;;2.40;2.20;;;;;;;14.03;nan;97378.81;1724278;75;60470;-74
2023/06/10 03:46:53;;;;;;;2.70;2.50;;;;;;;14.05;nan;97386.56;1719925;75;347988;-74
2023/06/10 03:49:26;;;;;;;2.20;1.90;;;;;;;14.14;nan;97388.28;1722662;75;78162;-71
2023/06/10 03:51:56;;;;;;;2.50;2.30;;;;;;;14.18;nan;97386.75;1721760;75;164348;-74
2023/06/10 03:54:29;;;;;;;2.20;2.00;;;;;;;14.17;nan;97384.53;1724418;75;55264;-72
2023/06/10 03:56:58;;;;;;;2.60;2.40;;;;;;;14.18;nan;97386.75;1721007;75;165997;-75
2023/06/10 03:59:28;;;;;;;2.10;1.90;;;;;;;14.29;nan;97388.72;1724355;75;59150;-70
2023/06/10 04:01:58;;;;;;;6.20;4.00;;;;;;;14.04;nan;97387.81;1723114;75;54752;-73
2023/06/10 04:04:28;;;;;;;4.90;4.30;;;;;;;14.17;nan;97385.28;1708994;75;1357469;-73
2023/06/10 04:06:58;;;;;;;2.90;2.65;;;;;;;14.37;nan;97386.94;1710642;75;1088893;-73
2023/06/10 04:09:31;;;;;;;2.20;2.00;;;;;;;14.42;nan;97386.16;1722130;75;199982;-72
2023/06/10 04:12:01;;;;;;;1.80;1.70;;;;;;;14.42;nan;97394.41;1720072;75;248690;-71
2023/06/10 04:14:31;;;;;;;2.60;2.40;;;;;;;14.43;nan;97392.41;1724480;75;115645;-72
2023/06/10 04:17:01;;;;;;;1.90;1.70;;;;;;;14.56;nan;97386.38;1721900;75;194843;-74
2023/06/10 04:19:31;;;;;;;1.90;1.80;;;;;;;14.51;nan;97389.88;1724656;75;60273;-73
2023/06/10 04:22:03;;;;;;;2.30;2.10;;;;;;;14.61;nan;97396.59;1723484;75;85030;-72
2023/06/10 04:24:36;;;;;;;1.90;1.80;;;;;;;14.68;nan;97396.06;1725111;75;56836;-70
2023/06/10 04:27:07;;;;;;;1.80;1.70;;;;;;;14.68;nan;97396.81;1721863;75;162191;-70
2023/06/10 04:29:37;;;;;;;1.40;1.30;;;;;;;14.72;nan;97391.03;1724913;75;53570;-71
2023/06/10 04:32:08;;;;;;;1.80;1.70;;;;;;;14.76;nan;97385.97;1721779;75;162097;-71
2023/06/10 04:34:38;;;;;;;1.60;1.50;;;;;;;14.80;nan;97391.97;1723451;75;183542;-71
2023/06/10 04:37:08;;;;;;;4.20;3.80;;;;;;;14.53;nan;97395.59;1722018;75;164195;-74
2023/06/10 04:39:41;;;;;;;5.70;5.10;;;;;;;14.62;nan;97390.59;1724003;75;56038;-70
2023/06/10 04:42:11;;;;;;;5.80;4.20;;;;;;;14.70;nan;97399.81;1722226;75;161397;-73
2023/06/10 04:44:41;;;;;;;4.20;3.80;;;;;;;14.81;nan;97393.47;1720846;75;334420;-72
2023/06/10 04:47:11;;;;;;;3.70;3.40;;;;;;;14.95;nan;97399.91;1721256;75;163284;-71
2023/06/10 04:49:41;;;;;;;5.00;4.50;;;;;;;14.83;nan;97390.22;1724271;75;67315;-70
2023/06/10 04:52:11;;;;;;;4.70;4.30;;;;;;;14.77;nan;97395.75;1723516;75;78463;-72
2023/06/10 04:54:43;;;;;;;4.20;3.80;;;;;;;14.97;nan;97396.63;1725241;75;51371;-72
2023/06/10 04:57:13;;;;;;;4.10;3.70;;;;;;;15.17;nan;97395.47;1722048;75;166283;-71
2023/06/10 04:59:43;;;;;;;3.40;2.90;;;;;;;15.24;nan;97395.66;1723507;75;53264;-71
2023/06/10 05:02:13;;;;;;;3.30;2.60;;;;;;;15.28;nan;97392.66;1722323;75;55324;-73
2023/06/10 05:04:43;;;;;;;2.40;2.20;;;;;;;15.39;nan;97394.53;1724435;75;60086;-74
2023/06/10 05:07:13;;;;;;;3.70;3.40;;;;;;;15.24;nan;97390.16;1723232;75;58759;-74
2023/06/10 05:09:45;;;;;;;4.60;4.20;;;;;;;15.25;nan;97396.41;1721898;75;322438;-74
2023/06/10 05:12:15;;;;;;;5.50;5.00;;;;;;;15.55;nan;97399.16;1722974;75;163600;-73
2023/06/10 05:14:46;;;;;;;7.00;6.00;;;;;;;15.51;nan;97402.22;1724506;75;51494;-71
2023/06/10 05:17:15;;;;;;;6.10;5.50;;;;;;;15.70;nan;97407.81;1722253;75;161447;-72
2023/06/10 05:19:47;;;;;;;6.40;5.70;;;;;;;15.68;nan;97407.59;1724335;75;53490;-70
2023/06/10 05:22:17;;;;;;;4.90;4.40;;;;;;;15.86;nan;97402.66;1721646;75;160884;-72
2023/06/10 05:24:50;;;;;;;4.00;3.60;;;;;;;15.93;nan;97400.06;1724100;75;52228;-70
2023/06/10 05:27:21;;;;;;;4.60;4.20;;;;;;;15.79;nan;97406.00;1721947;75;162211;-71
2023/06/10 05:29:51;;;;;;;4.60;4.20;;;;;;;15.81;nan;97401.47;1723866;75;54030;-73
2023/06/10 05:32:21;;;;;;;4.30;3.90;;;;;;;15.88;nan;97403.66;1721174;75;160557;-72
2023/06/10 05:34:50;;;;;;;4.80;4.30;;;;;;;15.91;nan;97399.84;1724389;75;92631;-73
2023/06/10 05:37:20;;;;;;;4.50;3.90;;;;;;;15.95;nan;97405.09;1723132;75;56061;-71
2023/06/10 05:39:53;;;;;;;5.30;4.80;;;;;;;15.89;nan;97407.16;1723821;75;58556;-74
2023/06/10 05:42:23;;;;;;;6.40;5.80;;;;;;;16.17;nan;97398.56;1721499;75;161687;-72
2023/06/10 05:44:52;;;;;;;5.00;4.60;;;;;;;16.33;nan;97408.66;1723892;75;65267;-71
2023/06/10 05:47:22;;;;;;;5.40;4.90;;;;;;;16.26;nan;97402.97;1720635;75;178252;-71
2023/06/10 05:49:52;;;;;;;7.60;6.90;;;;;;;16.19;nan;97404.31;1720620;75;248534;-70
2023/06/10 05:52:22;;;;;;;8.90;7.80;;;;;;;16.25;nan;97416.03;1723339;75;72450;-71
2023/06/10 05:54:54;;;;;;;6.10;5.60;;;;;;;16.55;nan;97413.16;1721171;75;330253;-72
2023/06/10 05:57:24;;;;;;;5.60;5.10;;;;;;;16.53;nan;97412.19;1720863;75;175497;-72
2023/06/10 05:59:54;;;;;;;5.00;4.50;;;;;;;16.65;nan;97410.78;1720341;75;348054;-71
2023/06/10 06:02:24;;;;;;;4.10;3.70;;;;;;;17.00;nan;97414.56;1721638;75;115815;-73
2023/06/10 06:04:54;;;;;;;8.20;5.60;;;;;;;16.61;nan;97416.59;1724817;75;63130;-72
2023/06/10 06:07:24;;;;;;;4.70;4.30;;;;;;;16.99;nan;97421.38;1721380;75;191246;-71
2023/06/10 06:09:57;;;;;;;4.00;3.60;;;;;;;17.17;nan;97412.31;1724456;75;60240;-76
2023/06/10 06:12:27;;;;;;;4.10;3.70;;;;;;;17.20;nan;97411.25;1722112;75;162820;-73
2023/06/10 06:14:56;;;;;;;3.20;2.90;;;;;;;17.25;nan;97413.19;1724572;75;65496;-70
2023/06/10 06:17:26;;;;;;;5.70;5.10;;;;;;;17.38;nan;97414.50;1723589;75;59175;-72
2023/06/10 06:19:57;;;;;;;4.90;4.40;;;;;;;17.63;nan;97415.06;1724977;75;62499;-73
2023/06/10 06:22:27;;;;;;;4.60;4.20;;;;;;;17.75;nan;97415.63;1723166;75;160987;-72
2023/06/10 06:24:59;;;;;;;5.00;4.30;;;;;;;17.58;nan;97410.38;1725130;75;82137;-72
2023/06/10 06:27:29;;;;;;;4.20;3.80;;;;;;;17.90;nan;97406.84;1697408;75;2185994;-75
2023/06/10 06:29:58;;;;;;;6.50;5.90;;;;;;;17.91;nan;97409.06;1722254;75;214918;-71
2023/06/10 06:32:29;;;;;;;9.20;8.30;;;;;;;18.10;nan;97415.25;1721923;75;116257;-73
2023/06/10 06:34:59;;;;;;;6.80;6.20;;;;;;;17.89;nan;97411.63;1720040;75;323185;-73
2023/06/10 06:37:29;;;;;;;5.50;5.00;;;;;;;18.19;nan;97424.44;1723427;75;58650;-71
2023/06/10 06:40:02;;;;;;;4.30;3.90;;;;;;;18.32;nan;97421.63;1722565;75;54847;-72
2023/06/10 06:42:31;;;;;;;4.40;4.00;;;;;;;18.37;nan;97420.78;1720086;75;227474;-73
2023/06/10 06:45:02;;;;;;;3.50;3.20;;;;;;;18.50;nan;97431.13;1723787;75;55958;-75
2023/06/10 06:47:31;;;;;;;5.20;4.30;;;;;;;18.36;nan;97424.09;1720849;75;191228;-76
2023/06/10 06:50:01;;;;;;;4.40;4.00;;;;;;;18.48;nan;97420.56;1723393;75;51236;-69
2023/06/10 06:52:31;;;;;;;3.70;3.30;;;;;;;18.61;nan;97422.56;1719888;75;332890;-70
2023/06/10 06:55:04;;;;;;;4.30;3.90;;;;;;;18.64;nan;97410.41;1723853;75;52575;-74
2023/06/10 06:57:33;;;;;;;5.40;4.90;;;;;;;18.49;nan;97412.97;1721701;75;164766;-71
2023/06/10 07:00:04;;;;;;;4.80;4.40;;;;;;;18.40;nan;97414.19;1723344;75;123258;-71
2023/06/10 07:02:34;;;;;;;4.40;4.00;;;;;;;18.65;nan;97414.66;1719356;75;289764;-72
2023/06/10 07:05:05;;;;;;;3.50;3.20;;;;;;;18.84;nan;97417.31;1724593;75;56601;-72
2023/06/10 07:07:35;;;;;;;3.70;3.10;;;;;;;18.89;nan;97413.66;1719927;75;162484;-74
2023/06/10 07:10:09;;;;;;;4.00;3.60;;;;;;;18.81;nan;97418.38;1720646;75;288681;-75
2023/06/10 07:12:39;;;;;;;4.20;3.70;;;;;;;18.82;nan;97417.09;1718419;75;345978;-73
2023/06/10 07:15:10;;;;;;;5.40;4.10;;;;;;;18.73;nan;97420.28;1724238;75;53899;-70
2023/06/10 07:17:40;;;;;;;4.40;3.80;;;;;;;19.00;nan;97421.00;1718765;75;251370;-70
2023/06/10 07:20:11;;;;;;;3.40;3.10;;;;;;;18.97;nan;97419.28;1709854;75;1217123;-72
2023/06/10 07:22:42;;;;;;;4.60;4.10;;;;;;;18.96;nan;97422.63;1721767;75;161694;-72
2023/06/10 07:25:15;;;;;;;4.80;4.30;;;;;;;18.84;nan;97416.56;1723254;75;52929;-70
2023/06/10 07:27:45;;;;;;;4.80;4.30;;;;;;;19.06;nan;97418.81;1721545;75;161531;-72
2023/06/10 07:30:16;;;;;;;4.40;4.00;;;;;;;19.01;nan;97427.28;1723429;75;52516;-72
2023/06/10 07:32:46;;;;;;;4.70;3.80;;;;;;;19.06;nan;97418.09;1721229;75;179838;-72
2023/06/10 07:35:16;;;;;;;4.90;4.10;;;;;;;19.06;nan;97421.59;1723137;75;54637;-72
2023/06/10 07:37:46;;;;;;;4.60;4.10;;;;;;;19.11;nan;97426.28;1721076;75;161616;-71
2023/06/10 07:40:19;;;;;;;5.20;4.70;;;;;;;19.10;nan;97416.47;1720516;75;350760;-70
2023/06/10 07:42:49;;;;;;;4.90;4.40;;;;;;;19.09;nan;97425.31;1721581;75;161427;-73
2023/06/10 07:45:19;;;;;;;4.60;4.00;;;;;;;19.37;nan;97421.91;1722140;75;244635;-72
2023/06/10 07:47:48;;;;;;;3.80;3.50;;;;;;;19.50;nan;97424.59;1722710;75;55494;-73
2023/06/10 07:50:18;;;;;;;4.10;3.70;;;;;;;19.42;nan;97421.00;1711400;75;1118690;-71
2023/06/10 07:52:48;;;;;;;4.50;4.10;;;;;;;19.40;nan;97423.59;1723233;75;57528;-73
2023/06/10 07:55:21;;;;;;;4.10;3.70;;;;;;;19.50;nan;97423.84;1724053;75;59816;-70
2023/06/10 07:57:50;;;;;;;5.30;4.10;;;;;;;19.29;nan;97424.59;1722347;75;161460;-69
2023/06/10 08:00:22;;;;;;;4.40;4.00;;;;;;;19.28;nan;97422.38;1724432;75;53289;-74
2023/06/10 08:02:52;;;;;;;4.20;3.80;;;;;;;19.28;nan;97422.38;1722487;75;161713;-70
2023/06/10 08:05:21;;;;;;;3.20;2.90;;;;;;;19.75;nan;97418.72;1722477;75;246035;-73
2023/06/10 08:07:51;;;;;;;4.20;3.80;;;;;;;19.62;nan;97421.53;1720542;75;290033;-70
2023/06/10 08:10:24;;;;;;;4.80;4.20;;;;;;;19.37;nan;97425.41;1723733;75;63213;-72
2023/06/10 08:12:54;;;;;;;4.00;3.70;;;;;;;19.74;nan;97417.22;1722209;75;179286;-73
2023/06/10 08:15:23;;;;;;;4.30;3.90;;;;;;;19.62;nan;97416.72;1724652;75;57957;-74
2023/06/10 08:17:53;;;;;;;4.00;3.60;;;;;;;19.79;nan;97416.31;1721272;75;223136;-71
2023/06/10 08:20:23;;;;;;;4.80;4.30;;;;;;;19.91;nan;97414.75;1723810;75;52979;-73
2023/06/10 08:22:53;;;;;;;4.40;4.00;;;;;;;20.06;nan;97413.34;1722805;75;55495;-74
2023/06/10 08:25:26;;;;;;;4.60;4.20;;;;;;;19.95;nan;97417.91;1723268;75;60258;-73
2023/06/10 08:27:56;;;;;;;5.50;5.00;;;;;;;19.71;nan;97421.09;1720603;75;162797;-72
2023/06/10 08:30:26;;;;;;;4.20;3.60;;;;;;;20.12;nan;97411.91;1722298;75;58771;-75
2023/06/10 08:32:56;;;;;;;4.20;3.80;;;;;;;20.12;nan;97414.69;1719063;75;272513;-76
2023/06/10 08:35:26;;;;;;;3.70;3.40;;;;;;;20.47;nan;97418.03;1724470;83;55905;-74
2023/06/10 08:37:55;;;;;;;3.80;3.40;;;;;;;20.75;nan;97417.22;1723074;75;58978;-74
2023/06/10 08:40:28;;;;;;;4.90;4.40;;;;;;;20.30;nan;97426.09;1722462;75;115422;-73
2023/06/10 08:43:08;;;;;;;4.80;4.30;;;;;;;20.39;nan;97420.75;1720802;75;161545;-76
2023/06/10 08:45:38;;;;;;;;;;;;;;;20.13;nan;97418.97;1708386;75;1227891;-74
2023/06/10 08:48:09;;;;;;;4.40;4.00;;;;;;;20.58;nan;97419.75;1720480;75;336698;-75
2023/06/10 08:50:40;;;;;;;4.80;4.30;;;;;;;20.57;nan;97421.81;1723754;75;56061;-73
2023/06/10 08:53:10;;;;;;;5.20;4.70;;;;;;;20.52;nan;97419.91;1724275;75;53751;-71
2023/06/10 08:55:47;;;;;;;5.70;3.60;;;;;;;20.88;nan;97418.38;1723950;75;56770;-75
2023/06/10 08:58:18;;;;;;;5.00;4.60;;;;;;;20.76;nan;97420.75;1722614;75;209486;-76
2023/06/10 09:00:48;;;;;;;6.10;5.20;;;;;;;20.45;nan;97417.09;1721835;75;58594;-71
2023/06/10 09:03:18;;;;;;;5.60;5.10;;;;;;;20.59;nan;97413.66;1723873;75;55299;-75
2023/06/10 09:05:49;;;;;;;4.80;4.40;;;;;;;20.92;nan;97418.75;1720256;75;340677;-75
2023/06/10 09:08:19;;;;;;;5.40;4.90;;;;;;;20.75;nan;97410.91;1722443;75;52521;-73
2023/06/10 09:10:52;;;;;;;5.10;4.60;;;;;;;20.86;nan;97418.94;1721233;75;150402;-74
2023/06/10 09:13:22;;;;;;;4.80;3.90;;;;;;;20.87;nan;97412.06;1722715;75;62637;-72
2023/06/10 09:15:52;;;;;;;5.20;4.70;;;;;;;20.50;nan;97422.47;1718804;75;226568;-72
2023/06/10 09:18:22;;;;;;;6.00;4.70;;;;;;;20.62;nan;97409.78;1721276;75;259606;-74
2023/06/10 09:20:52;;;;;;;5.30;4.80;;;;;;;20.57;nan;97418.28;1721394;75;116196;-73
2023/06/10 09:23:22;;;;;;;6.60;5.90;;;;;;;20.36;nan;97415.56;1720725;75;59339;-71
2023/06/10 09:26:00;;;;;;;6.10;5.50;;;;;;;20.49;nan;97409.13;1717282;75;375405;-74
2023/06/10 09:28:30;;;;;;;6.10;5.50;;;;;;;20.54;nan;97411.75;1723738;75;60523;-73
2023/06/10 09:31:09;;;;;;;4.70;4.30;;;;;;;20.69;nan;97411.09;1721353;75;164822;-70
2023/06/10 09:33:41;;;;;;;5.90;5.30;;;;;;;20.76;nan;97410.38;1722844;75;52178;-74
2023/06/10 09:36:12;;;;;;;5.90;5.40;;;;;;;20.59;nan;97412.91;1723689;75;49391;-75
2023/06/10 09:38:41;;;;;;;5.20;4.70;;;;;;;20.82;nan;97410.19;1722084;75;273829;-76
2023/06/10 09:41:15;;;;;;;5.00;4.50;;;;;;;20.95;nan;97400.94;1649217;83;6178146;-72
2023/06/10 09:43:48;;;;;;;5.70;4.00;;;;;;;21.16;nan;97400.81;1720512;75;212730;-70
2023/06/10 09:46:19;;;;;;;5.00;4.50;;;;;;;21.25;nan;97398.22;1721155;75;282489;-70
2023/06/10 09:48:50;;;;;;;5.20;4.70;;;;;;;21.50;nan;97403.28;1722953;75;65044;-71
2023/06/10 09:51:21;;;;;;;4.50;4.10;;;;;;;21.69;nan;97405.69;1710613;75;1163052;-72
2023/06/10 09:53:53;;;;;;;5.90;4.40;;;;;;;21.46;nan;97409.22;1722874;75;55081;-73
2023/06/10 09:56:37;;;;;;;6.80;4.50;;;;;;;21.40;nan;97399.56;1722264;75;160374;-72
2023/06/10 09:59:08;;;;;;;5.30;4.50;;;;;;;21.67;nan;97397.13;1719301;75;168022;-72
2023/06/10 10:01:37;;;;;;;5.00;4.40;;;;;;;21.86;nan;97399.53;1721113;75;337826;-73
2023/06/10 10:04:07;;;;;;;5.00;3.90;;;;;;;21.77;nan;97398.06;1722056;75;161460;-71
2023/06/10 10:06:39;;;;;;;4.30;3.90;;;;;;;21.74;nan;97399.16;1723120;75;54246;-74
2023/06/10 10:09:10;;;;;;;4.40;4.00;;;;;;;21.78;nan;97384.88;1720829;75;169330;-70
2023/06/10 10:11:43;;;;;;;4.80;3.90;;;;;;;22.13;nan;97388.72;1723122;75;56766;-70
2023/06/10 10:14:14;;;;;;;4.50;4.10;;;;;;;22.07;nan;97391.69;1721993;75;163209;-70
2023/06/10 10:16:45;;;;;;;4.70;4.30;;;;;;;21.85;nan;97396.00;1721029;75;252656;-76
2023/06/10 10:19:19;;;;;;;4.80;4.20;;;;;;;22.23;nan;97386.13;1721934;75;168526;-74
2023/06/10 10:21:57;;;;;;;3.40;3.10;;;;;;;22.60;nan;97383.72;1721522;75;277078;-70
2023/06/10 10:24:36;;;;;;;3.20;2.90;;;;;;;22.93;nan;97379.66;1721690;75;162743;-73
2023/06/10 10:27:16;;;;;;;3.70;3.40;;;;;;;23.06;nan;97377.91;1723790;75;51511;-71
2023/06/10 10:29:50;;;;;;;5.80;5.20;;;;;;;22.35;nan;97372.50;1723802;75;55173;-74
2023/06/10 10:32:24;;;;;;;6.00;5.40;;;;;;;22.12;nan;97373.28;1720898;75;252539;-72
2023/06/10 10:35:04;;;;;;;10.30;9.20;;;;;;;22.94;nan;97366.41;1720300;75;329520;-72
2023/06/10 10:37:35;;;;;;;6.40;5.80;;;;;;;22.10;nan;97373.84;1721756;75;171299;-73
2023/06/10 10:40:07;;;;;;;4.80;4.40;;;;;;;23.14;nan;97361.88;1720223;75;331591;-74
2023/06/10 10:42:41;;;;;;;4.70;4.10;;;;;;;23.10;nan;97364.31;1720929;75;162897;-72
2023/06/10 10:45:13;;;;;;;4.60;3.90;;;;;;;23.49;nan;97361.94;1724043;75;54288;-72
2023/06/10 10:47:44;;;;;;;4.20;3.80;;;;;;;23.57;nan;97360.59;1722110;75;161816;-72
2023/06/10 10:50:18;;;;;;;4.20;3.70;;;;;;;23.36;nan;97360.94;1724577;75;60931;-76
2023/06/10 10:52:57;;;;;;;3.90;3.60;;;;;;;23.39;nan;97359.06;1722948;75;164789;-75
2023/06/10 10:55:28;;;;;;;4.20;3.80;;;;;;;23.56;nan;97356.28;1721987;75;227310;-72
2023/06/10 10:58:02;;;;;;;4.10;3.70;;;;;;;23.60;nan;97348.25;1721974;75;267813;-77
2023/06/10 11:00:34;;;;;;;4.20;3.80;;;;;;;23.99;nan;97350.69;1725489;75;57134;-72
2023/06/10 11:03:09;;;;;;;3.70;3.20;;;;;;;24.53;nan;97350.81;1725337;75;56444;-72
2023/06/10 11:05:44;;;;;;;5.50;4.60;;;;;;;24.03;nan;97353.81;1725103;75;55179;-74
2023/06/10 11:08:14;;;;;;;6.00;4.60;;;;;;;23.55;nan;97345.72;1725125;75;55082;-71
2023/06/10 11:10:54;;;;;;;4.80;4.00;;;;;;;24.45;nan;97344.56;1723914;75;58456;-70
2023/06/10 11:13:29;;;;;;;3.10;2.70;;;;;;;25.09;nan;97336.97;1723329;75;54637;-71
2023/06/10 11:16:01;;;;;;;2.60;2.40;;;;;;;25.41;nan;97331.63;1724159;75;51427;-73
2023/06/10 11:18:37;;;;;;;3.90;3.50;;;;;;;24.97;nan;97338.09;1720869;75;328294;-73
2023/06/10 11:21:08;;;;;;;3.20;2.90;;;;;;;25.16;nan;97326.97;1722842;75;59611;-70
2023/06/10 11:23:43;;;;;;;3.30;3.00;;;;;;;24.82;nan;97330.66;1723442;75;60852;-72
2023/06/10 11:26:15;;;;;;;4.20;3.30;;;;;;;24.78;nan;97324.75;1711258;75;1088713;-72
2023/06/10 11:29:13;;;;;;;3.00;2.70;;;;;;;24.64;nan;97316.72;1720555;75;365705;-73
2023/06/10 11:31:48;;;;;;;2.50;2.30;;;;;;;25.19;nan;97317.41;1724039;75;50596;-73
2023/06/10 11:34:27;;;;;;;3.00;2.70;;;;;;;24.74;nan;97316.03;1724063;75;55586;-71
2023/06/10 11:36:58;;;;;;;3.10;2.80;;;;;;;24.73;nan;97311.75;1720989;75;161072;-70
2023/06/10 11:39:29;;;;;;;2.50;2.30;;;;;;;25.09;nan;97311.03;1724451;75;54468;-73
2023/06/10 11:41:59;;;;;;;3.20;2.90;;;;;;;24.93;nan;97309.78;1721109;75;160949;-72
2023/06/10 11:44:34;;;;;;;3.00;2.70;;;;;;;24.65;nan;97304.22;1724379;75;54139;-72
2023/06/10 11:47:04;;;;;;;2.80;2.60;;;;;;;24.45;nan;97306.13;1719310;75;245370;-73
2023/06/10 11:49:34;;;;;;;3.90;2.60;;;;;;;24.74;nan;97302.03;1724865;75;53217;-75
2023/06/10 11:52:07;;;;;;;3.10;2.80;;;;;;;24.78;nan;97289.09;1723062;75;74906;-75
2023/06/10 11:54:36;;;;;;;2.50;2.30;;;;;;;25.21;nan;97291.63;1723312;75;58867;-73
2023/06/10 11:57:08;;;;;;;2.60;2.40;;;;;;;25.28;nan;97296.38;1721358;75;161718;-71
2023/06/10 11:59:41;;;;;;;2.70;2.50;;;;;;;25.30;nan;97293.69;1721490;75;60325;-75
2023/06/10 12:02:18;;;;;;;3.70;2.80;;;;;;;24.89;nan;97287.78;1721761;75;162420;-73
2023/06/10 12:04:48;;;;;;;2.70;2.20;;;;;;;25.23;nan;97286.91;1723309;75;57503;-72
2023/06/10 12:07:22;;;;;;;2.70;2.40;;;;;;;25.89;nan;97284.06;1724150;75;61271;-71